sensor_id;sensor_type;location;lat;lon;timestamp;temperature;humidity
14877;DHT22;22152;48.158;17.118;2023-01-29T00:01:34;4.10;74.10
14877;DHT22;22152;48.158;17.118;2023-01-29T00:04:07;4.10;74.20
14877;DHT22;22152;48.158;17.118;2023-01-29T00:07:00;4.00;74.20
14877;DHT22;22152;48.158;17.118;2023-01-29T00:09:32;3.90;74.90
14877;DHT22;22152;48.158;17.118;2023-01-29T00:12:24;3.90;74.20
14877;DHT22;22152;48.158;17.118;2023-01-29T00:15:10;3.90;74.30
14877;DHT22;22152;48.158;17.118;2023-01-29T00:18:04;3.90;74.20
14877;DHT22;22152;48.158;17.118;2023-01-29T00:20:36;3.90;74.20
14877;DHT22;22152;48.158;17.118;2023-01-29T00:23:28;3.90;74.30
14877;DHT22;22152;48.158;17.118;2023-01-29T00:26:01;4.00;74.40
14877;DHT22;22152;48.158;17.118;2023-01-29T00:28:56;4.00;73.80
14877;DHT22;22152;48.158;17.118;2023-01-29T00:31:38;4.00;73.50
14877;DHT22;22152;48.158;17.118;2023-01-29T00:34:23;3.90;73.50
14877;DHT22;22152;48.158;17.118;2023-01-29T00:37:02;3.90;73.30
14877;DHT22;22152;48.158;17.118;2023-01-29T00:39:48;3.80;73.30
14877;DHT22;22152;48.158;17.118;2023-01-29T00:42:28;3.90;73.10
14877;DHT22;22152;48.158;17.118;2023-01-29T00:45:32;3.80;72.70
14877;DHT22;22152;48.158;17.118;2023-01-29T00:48:11;3.80;73.00
14877;DHT22;22152;48.158;17.118;2023-01-29T00:50:57;3.90;73.00
14877;DHT22;22152;48.158;17.118;2023-01-29T00:53:37;3.90;72.50
14877;DHT22;22152;48.158;17.118;2023-01-29T00:56:24;3.80;71.80
14877;DHT22;22152;48.158;17.118;2023-01-29T00:59:03;3.80;72.20
14877;DHT22;22152;48.158;17.118;2023-01-29T01:01:49;3.80;71.90
14877;DHT22;22152;48.158;17.118;2023-01-29T01:04:47;3.80;71.70
14877;DHT22;22152;48.158;17.118;2023-01-29T01:07:33;3.80;71.70
14877;DHT22;22152;48.158;17.118;2023-01-29T01:10:24;3.80;71.80
14877;DHT22;22152;48.158;17.118;2023-01-29T01:13:12;3.80;71.60
14877;DHT22;22152;48.158;17.118;2023-01-29T01:16:14;3.90;71.80
14877;DHT22;22152;48.158;17.118;2023-01-29T01:18:48;3.90;71.60
14877;DHT22;22152;48.158;17.118;2023-01-29T01:21:41;3.90;71.90
14877;DHT22;22152;48.158;17.118;2023-01-29T01:24:16;3.80;71.60
14877;DHT22;22152;48.158;17.118;2023-01-29T01:27:08;3.70;71.80
14877;DHT22;22152;48.158;17.118;2023-01-29T01:29:41;3.80;72.40
14877;DHT22;22152;48.158;17.118;2023-01-29T01:32:33;3.80;72.50
14877;DHT22;22152;48.158;17.118;2023-01-29T01:35:07;3.60;72.20
14877;DHT22;22152;48.158;17.118;2023-01-29T01:38:00;3.70;72.40
14877;DHT22;22152;48.158;17.118;2023-01-29T01:40:33;3.70;72.40
14877;DHT22;22152;48.158;17.118;2023-01-29T01:43:25;3.70;72.20
14877;DHT22;22152;48.158;17.118;2023-01-29T01:45:59;3.70;72.00
14877;DHT22;22152;48.158;17.118;2023-01-29T01:49:04;3.70;71.50
14877;DHT22;22152;48.158;17.118;2023-01-29T01:51:45;3.60;71.60
14877;DHT22;22152;48.158;17.118;2023-01-29T01:54:41;3.60;71.70
14877;DHT22;22152;48.158;17.118;2023-01-29T01:57:20;3.60;71.80
14877;DHT22;22152;48.158;17.118;2023-01-29T02:00:17;3.60;71.60
14877;DHT22;22152;48.158;17.118;2023-01-29T02:02:51;3.60;71.40
14877;DHT22;22152;48.158;17.118;2023-01-29T02:06:02;3.50;71.30
14877;DHT22;22152;48.158;17.118;2023-01-29T02:08:57;3.60;71.70
14877;DHT22;22152;48.158;17.118;2023-01-29T02:12:13;3.60;71.50
14877;DHT22;22152;48.158;17.118;2023-01-29T02:14:47;3.60;71.40
14877;DHT22;22152;48.158;17.118;2023-01-29T02:17:40;3.50;71.20
14877;DHT22;22152;48.158;17.118;2023-01-29T02:20:19;3.50;71.30
14877;DHT22;22152;48.158;17.118;2023-01-29T02:23:30;3.40;71.40
14877;DHT22;22152;48.158;17.118;2023-01-29T02:26:49;3.40;71.40
14877;DHT22;22152;48.158;17.118;2023-01-29T02:36:26;3.30;71.60
14877;DHT22;22152;48.158;17.118;2023-01-29T02:39:40;3.30;71.50
14877;DHT22;22152;48.158;17.118;2023-01-29T02:42:45;3.30;71.90
14877;DHT22;22152;48.158;17.118;2023-01-29T02:45:38;3.20;72.30
14877;DHT22;22152;48.158;17.118;2023-01-29T02:48:37;3.30;71.60
14877;DHT22;22152;48.158;17.118;2023-01-29T02:51:35;3.40;71.50
14877;DHT22;22152;48.158;17.118;2023-01-29T02:57:25;3.40;70.90
14877;DHT22;22152;48.158;17.118;2023-01-29T03:00:19;3.40;70.90
14877;DHT22;22152;48.158;17.118;2023-01-29T03:03:09;3.30;69.90
14877;DHT22;22152;48.158;17.118;2023-01-29T03:06:14;3.20;70.60
14877;DHT22;22152;48.158;17.118;2023-01-29T03:09:03;3.10;70.90
14877;DHT22;22152;48.158;17.118;2023-01-29T03:11:56;3.10;70.80
14877;DHT22;22152;48.158;17.118;2023-01-29T03:14:48;3.20;71.20
14877;DHT22;22152;48.158;17.118;2023-01-29T03:18:15;3.20;71.10
14877;DHT22;22152;48.158;17.118;2023-01-29T03:20:53;3.30;70.80
14877;DHT22;22152;48.158;17.118;2023-01-29T03:24:14;3.30;70.80
14877;DHT22;22152;48.158;17.118;2023-01-29T03:27:10;3.40;70.90
14877;DHT22;22152;48.158;17.118;2023-01-29T03:30:24;3.40;70.70
14877;DHT22;22152;48.158;17.118;2023-01-29T03:33:49;3.40;70.70
14877;DHT22;22152;48.158;17.118;2023-01-29T03:39:47;3.40;70.90
14877;DHT22;22152;48.158;17.118;2023-01-29T03:43:03;3.40;70.40
14877;DHT22;22152;48.158;17.118;2023-01-29T03:49:11;3.30;70.60
14877;DHT22;22152;48.158;17.118;2023-01-29T03:52:08;3.30;70.50
14877;DHT22;22152;48.158;17.118;2023-01-29T03:58:37;3.40;70.50
14877;DHT22;22152;48.158;17.118;2023-01-29T04:02:38;3.30;69.90
14877;DHT22;22152;48.158;17.118;2023-01-29T04:04:59;3.30;69.70
14877;DHT22;22152;48.158;17.118;2023-01-29T04:08:10;3.20;69.90
14877;DHT22;22152;48.158;17.118;2023-01-29T04:10:55;3.20;69.80
14877;DHT22;22152;48.158;17.118;2023-01-29T04:13:44;3.20;69.80
14877;DHT22;22152;48.158;17.118;2023-01-29T04:16:41;3.20;69.70
14877;DHT22;22152;48.158;17.118;2023-01-29T04:19:21;3.20;69.50
14877;DHT22;22152;48.158;17.118;2023-01-29T04:25:18;3.20;69.40
14877;DHT22;22152;48.158;17.118;2023-01-29T04:28:24;3.20;69.10
14877;DHT22;22152;48.158;17.118;2023-01-29T04:31:04;3.10;68.80
14877;DHT22;22152;48.158;17.118;2023-01-29T04:34:14;3.10;68.40
14877;DHT22;22152;48.158;17.118;2023-01-29T04:37:11;3.10;68.20
14877;DHT22;22152;48.158;17.118;2023-01-29T04:40:19;3.10;68.40
14877;DHT22;22152;48.158;17.118;2023-01-29T04:43:03;3.00;68.00
14877;DHT22;22152;48.158;17.118;2023-01-29T04:49:10;2.90;68.20
14877;DHT22;22152;48.158;17.118;2023-01-29T04:52:23;2.90;67.70
14877;DHT22;22152;48.158;17.118;2023-01-29T04:55:39;2.90;67.80
14877;DHT22;22152;48.158;17.118;2023-01-29T04:58:41;2.90;67.90
14877;DHT22;22152;48.158;17.118;2023-01-29T05:01:18;2.90;68.00
14877;DHT22;22152;48.158;17.118;2023-01-29T05:04:13;2.90;67.70
14877;DHT22;22152;48.158;17.118;2023-01-29T05:06:48;2.80;67.40
14877;DHT22;22152;48.158;17.118;2023-01-29T05:09:44;2.80;67.50
14877;DHT22;22152;48.158;17.118;2023-01-29T05:12:17;2.80;67.50
14877;DHT22;22152;48.158;17.118;2023-01-29T05:15:14;2.70;66.60
14877;DHT22;22152;48.158;17.118;2023-01-29T05:18:10;2.60;66.90
14877;DHT22;22152;48.158;17.118;2023-01-29T05:20:43;2.70;67.00
14877;DHT22;22152;48.158;17.118;2023-01-29T05:23:36;2.70;66.80
14877;DHT22;22152;48.158;17.118;2023-01-29T05:26:08;2.70;66.70
14877;DHT22;22152;48.158;17.118;2023-01-29T05:29:20;2.70;66.80
14877;DHT22;22152;48.158;17.118;2023-01-29T05:31:52;2.70;66.60
14877;DHT22;22152;48.158;17.118;2023-01-29T05:34:45;2.70;66.50
14877;DHT22;22152;48.158;17.118;2023-01-29T05:37:17;2.70;66.40
14877;DHT22;22152;48.158;17.118;2023-01-29T05:40:10;2.60;66.30
14877;DHT22;22152;48.158;17.118;2023-01-29T05:42:43;2.60;66.80
14877;DHT22;22152;48.158;17.118;2023-01-29T05:45:36;2.60;66.40
14877;DHT22;22152;48.158;17.118;2023-01-29T05:48:08;2.70;66.40
14877;DHT22;22152;48.158;17.118;2023-01-29T05:51:02;2.70;66.20
14877;DHT22;22152;48.158;17.118;2023-01-29T05:53:35;2.60;65.80
14877;DHT22;22152;48.158;17.118;2023-01-29T05:56:28;2.60;65.70
14877;DHT22;22152;48.158;17.118;2023-01-29T05:59:00;2.60;65.70
14877;DHT22;22152;48.158;17.118;2023-01-29T06:01:53;2.50;65.70
14877;DHT22;22152;48.158;17.118;2023-01-29T06:04:25;2.50;65.30
14877;DHT22;22152;48.158;17.118;2023-01-29T06:07:18;2.40;66.20
14877;DHT22;22152;48.158;17.118;2023-01-29T06:09:50;2.40;65.70
14877;DHT22;22152;48.158;17.118;2023-01-29T06:12:43;2.40;65.70
14877;DHT22;22152;48.158;17.118;2023-01-29T06:15:15;2.30;65.50
14877;DHT22;22152;48.158;17.118;2023-01-29T06:18:09;2.30;65.40
14877;DHT22;22152;48.158;17.118;2023-01-29T06:20:41;2.30;65.30
14877;DHT22;22152;48.158;17.118;2023-01-29T06:23:34;2.10;65.10
14877;DHT22;22152;48.158;17.118;2023-01-29T06:26:10;2.00;64.90
14877;DHT22;22152;48.158;17.118;2023-01-29T06:29:05;1.90;64.80
14877;DHT22;22152;48.158;17.118;2023-01-29T06:31:37;1.70;64.50
14877;DHT22;22152;48.158;17.118;2023-01-29T06:34:30;1.60;65.30
14877;DHT22;22152;48.158;17.118;2023-01-29T06:37:09;1.40;64.50
14877;DHT22;22152;48.158;17.118;2023-01-29T06:39:55;1.20;64.60
14877;DHT22;22152;48.158;17.118;2023-01-29T06:42:36;1.10;64.90
14877;DHT22;22152;48.158;17.118;2023-01-29T06:45:22;1.10;65.00
14877;DHT22;22152;48.158;17.118;2023-01-29T06:48:01;1.00;64.80
14877;DHT22;22152;48.158;17.118;2023-01-29T06:50:47;1.00;64.70
14877;DHT22;22152;48.158;17.118;2023-01-29T06:53:32;1.00;65.20
14877;DHT22;22152;48.158;17.118;2023-01-29T06:56:21;1.00;64.90
14877;DHT22;22152;48.158;17.118;2023-01-29T06:59:15;1.00;65.00
14877;DHT22;22152;48.158;17.118;2023-01-29T07:01:47;1.00;65.30
14877;DHT22;22152;48.158;17.118;2023-01-29T07:04:40;1.10;65.50
14877;DHT22;22152;48.158;17.118;2023-01-29T07:07:13;1.20;65.20
14877;DHT22;22152;48.158;17.118;2023-01-29T07:10:06;1.30;64.60
14877;DHT22;22152;48.158;17.118;2023-01-29T07:12:39;1.40;64.60
14877;DHT22;22152;48.158;17.118;2023-01-29T07:15:32;1.60;64.40
14877;DHT22;22152;48.158;17.118;2023-01-29T07:18:26;1.70;63.60
14877;DHT22;22152;48.158;17.118;2023-01-29T07:20:58;1.80;63.20
14877;DHT22;22152;48.158;17.118;2023-01-29T07:23:56;1.90;63.30
14877;DHT22;22152;48.158;17.118;2023-01-29T07:26:29;1.90;62.60
14877;DHT22;22152;48.158;17.118;2023-01-29T07:29:22;1.90;62.10
14877;DHT22;22152;48.158;17.118;2023-01-29T07:31:54;2.10;62.40
14877;DHT22;22152;48.158;17.118;2023-01-29T07:34:47;2.00;61.40
14877;DHT22;22152;48.158;17.118;2023-01-29T07:37:27;2.10;61.20
14877;DHT22;22152;48.158;17.118;2023-01-29T07:40:13;2.20;60.50
14877;DHT22;22152;48.158;17.118;2023-01-29T07:43:00;2.10;60.20
14877;DHT22;22152;48.158;17.118;2023-01-29T07:45:47;1.80;59.60
14877;DHT22;22152;48.158;17.118;2023-01-29T07:48:26;1.70;59.60
14877;DHT22;22152;48.158;17.118;2023-01-29T07:51:12;1.60;60.00
14877;DHT22;22152;48.158;17.118;2023-01-29T07:53:51;1.60;60.10
14877;DHT22;22152;48.158;17.118;2023-01-29T07:56:37;1.50;59.90
14877;DHT22;22152;48.158;17.118;2023-01-29T07:59:16;1.60;59.90
14877;DHT22;22152;48.158;17.118;2023-01-29T08:02:02;1.50;59.70
14877;DHT22;22152;48.158;17.118;2023-01-29T08:04:41;1.50;59.70
14877;DHT22;22152;48.158;17.118;2023-01-29T08:07:27;1.50;59.50
14877;DHT22;22152;48.158;17.118;2023-01-29T08:10:06;1.40;59.50
14877;DHT22;22152;48.158;17.118;2023-01-29T08:12:57;1.40;59.40
14877;DHT22;22152;48.158;17.118;2023-01-29T08:15:44;1.40;59.00
14877;DHT22;22152;48.158;17.118;2023-01-29T08:18:38;1.30;59.10
14877;DHT22;22152;48.158;17.118;2023-01-29T08:21:10;1.30;59.10
14877;DHT22;22152;48.158;17.118;2023-01-29T08:24:03;1.20;58.80
14877;DHT22;22152;48.158;17.118;2023-01-29T08:26:36;1.20;59.10
14877;DHT22;22152;48.158;17.118;2023-01-29T08:29:29;1.30;58.90
14877;DHT22;22152;48.158;17.118;2023-01-29T08:32:01;1.30;59.00
14877;DHT22;22152;48.158;17.118;2023-01-29T08:34:54;1.30;58.50
14877;DHT22;22152;48.158;17.118;2023-01-29T08:37:26;1.40;58.80
14877;DHT22;22152;48.158;17.118;2023-01-29T08:40:19;1.40;59.30
14877;DHT22;22152;48.158;17.118;2023-01-29T08:42:51;1.50;58.80
14877;DHT22;22152;48.158;17.118;2023-01-29T08:45:44;1.60;58.10
14877;DHT22;22152;48.158;17.118;2023-01-29T08:48:16;1.60;58.20
14877;DHT22;22152;48.158;17.118;2023-01-29T08:51:10;1.60;58.10
14877;DHT22;22152;48.158;17.118;2023-01-29T08:53:42;1.60;58.20
14877;DHT22;22152;48.158;17.118;2023-01-29T08:56:35;1.70;57.90
14877;DHT22;22152;48.158;17.118;2023-01-29T08:59:09;1.70;58.00
14877;DHT22;22152;48.158;17.118;2023-01-29T09:02:02;1.80;57.70
14877;DHT22;22152;48.158;17.118;2023-01-29T09:04:34;1.70;57.20
14877;DHT22;22152;48.158;17.118;2023-01-29T09:07:28;1.70;56.90
14877;DHT22;22152;48.158;17.118;2023-01-29T09:10:00;1.60;57.20
14877;DHT22;22152;48.158;17.118;2023-01-29T09:12:54;1.70;57.30
14877;DHT22;22152;48.158;17.118;2023-01-29T09:15:33;1.80;57.20
14877;DHT22;22152;48.158;17.118;2023-01-29T09:18:26;1.90;57.10
14877;DHT22;22152;48.158;17.118;2023-01-29T09:20:59;2.00;56.90
14877;DHT22;22152;48.158;17.118;2023-01-29T09:23:52;1.90;56.60
14877;DHT22;22152;48.158;17.118;2023-01-29T09:26:24;2.00;56.80
14877;DHT22;22152;48.158;17.118;2023-01-29T09:29:17;1.90;56.40
14877;DHT22;22152;48.158;17.118;2023-01-29T09:31:49;2.00;56.60
14877;DHT22;22152;48.158;17.118;2023-01-29T09:34:42;2.10;56.60
14877;DHT22;22152;48.158;17.118;2023-01-29T09:37:14;2.10;56.60
14877;DHT22;22152;48.158;17.118;2023-01-29T09:43:17;2.20;56.70
14877;DHT22;22152;48.158;17.118;2023-01-29T09:46:19;2.30;56.50
14877;DHT22;22152;48.158;17.118;2023-01-29T09:49:09;2.30;56.40
14877;DHT22;22152;48.158;17.118;2023-01-29T09:55:13;2.40;56.20
14877;DHT22;22152;48.158;17.118;2023-01-29T09:58:35;2.30;55.90
14877;DHT22;22152;48.158;17.118;2023-01-29T10:08:01;2.50;55.80
14877;DHT22;22152;48.158;17.118;2023-01-29T10:14:05;2.40;55.50
14877;DHT22;22152;48.158;17.118;2023-01-29T10:17:31;2.50;56.50
14877;DHT22;22152;48.158;17.118;2023-01-29T10:23:50;2.50;55.80
14877;DHT22;22152;48.158;17.118;2023-01-29T10:26:27;2.50;55.20
14877;DHT22;22152;48.158;17.118;2023-01-29T10:29:22;2.50;55.50
14877;DHT22;22152;48.158;17.118;2023-01-29T10:31:57;2.60;55.70
14877;DHT22;22152;48.158;17.118;2023-01-29T10:34:58;2.60;55.20
14877;DHT22;22152;48.158;17.118;2023-01-29T10:37:40;2.60;55.40
14877;DHT22;22152;48.158;17.118;2023-01-29T10:47:20;2.60;54.80
14877;DHT22;22152;48.158;17.118;2023-01-29T10:50:38;2.40;54.70
14877;DHT22;22152;48.158;17.118;2023-01-29T10:53:40;2.40;55.30
14877;DHT22;22152;48.158;17.118;2023-01-29T11:02:32;2.20;55.60
14877;DHT22;22152;48.158;17.118;2023-01-29T11:05:24;2.20;55.70
14877;DHT22;22152;48.158;17.118;2023-01-29T11:08:12;2.20;55.70
14877;DHT22;22152;48.158;17.118;2023-01-29T11:11:13;2.20;55.70
14877;DHT22;22152;48.158;17.118;2023-01-29T11:14:00;2.20;55.80
14877;DHT22;22152;48.158;17.118;2023-01-29T11:16:55;2.30;55.80
14877;DHT22;22152;48.158;17.118;2023-01-29T11:19:50;2.30;55.70
14877;DHT22;22152;48.158;17.118;2023-01-29T11:22:25;2.30;56.20
14877;DHT22;22152;48.158;17.118;2023-01-29T11:25:20;2.40;56.20
14877;DHT22;22152;48.158;17.118;2023-01-29T11:27:58;2.30;56.00
14877;DHT22;22152;48.158;17.118;2023-01-29T11:30:52;2.40;56.10
14877;DHT22;22152;48.158;17.118;2023-01-29T11:33:25;2.40;56.10
14877;DHT22;22152;48.158;17.118;2023-01-29T11:39:20;2.30;55.90
14877;DHT22;22152;48.158;17.118;2023-01-29T11:42:19;2.30;55.90
14877;DHT22;22152;48.158;17.118;2023-01-29T11:44:59;2.40;56.40
14877;DHT22;22152;48.158;17.118;2023-01-29T11:47:49;2.40;56.10
14877;DHT22;22152;48.158;17.118;2023-01-29T11:50:32;2.50;56.00
14877;DHT22;22152;48.158;17.118;2023-01-29T11:53:24;2.40;55.60
14877;DHT22;22152;48.158;17.118;2023-01-29T11:56:41;2.30;55.80
14877;DHT22;22152;48.158;17.118;2023-01-29T11:59:44;2.30;56.00
14877;DHT22;22152;48.158;17.118;2023-01-29T12:02:36;2.30;55.90
14877;DHT22;22152;48.158;17.118;2023-01-29T12:05:27;2.30;56.00
14877;DHT22;22152;48.158;17.118;2023-01-29T12:08:15;2.30;55.90
14877;DHT22;22152;48.158;17.118;2023-01-29T12:13:53;2.30;55.90
14877;DHT22;22152;48.158;17.118;2023-01-29T12:16:55;2.30;56.00
14877;DHT22;22152;48.158;17.118;2023-01-29T12:20:01;2.20;56.20
14877;DHT22;22152;48.158;17.118;2023-01-29T12:29:32;2.10;56.80
14877;DHT22;22152;48.158;17.118;2023-01-29T12:32:56;2.10;56.90
14877;DHT22;22152;48.158;17.118;2023-01-29T12:35:35;2.20;56.90
14877;DHT22;22152;48.158;17.118;2023-01-29T12:38:30;2.30;57.00
14877;DHT22;22152;48.158;17.118;2023-01-29T12:41:16;2.20;56.40
14877;DHT22;22152;48.158;17.118;2023-01-29T12:44:32;2.20;56.70
14877;DHT22;22152;48.158;17.118;2023-01-29T12:47:30;2.30;56.60
14877;DHT22;22152;48.158;17.118;2023-01-29T12:50:26;2.20;56.50
14877;DHT22;22152;48.158;17.118;2023-01-29T12:56:38;2.10;56.70
14877;DHT22;22152;48.158;17.118;2023-01-29T12:59:31;2.10;56.70
14877;DHT22;22152;48.158;17.118;2023-01-29T13:05:34;2.20;57.10
14877;DHT22;22152;48.158;17.118;2023-01-29T13:08:26;2.20;56.90
14877;DHT22;22152;48.158;17.118;2023-01-29T13:11:36;2.20;57.10
14877;DHT22;22152;48.158;17.118;2023-01-29T13:14:35;2.30;57.10
14877;DHT22;22152;48.158;17.118;2023-01-29T13:17:38;2.40;57.00
14877;DHT22;22152;48.158;17.118;2023-01-29T13:20:17;2.50;56.90
14877;DHT22;22152;48.158;17.118;2023-01-29T13:26:04;2.70;56.90
14877;DHT22;22152;48.158;17.118;2023-01-29T13:28:58;2.70;56.40
14877;DHT22;22152;48.158;17.118;2023-01-29T13:31:35;2.60;56.30
14877;DHT22;22152;48.158;17.118;2023-01-29T13:34:36;2.60;56.40
14877;DHT22;22152;48.158;17.118;2023-01-29T13:40:32;2.80;56.40
14877;DHT22;22152;48.158;17.118;2023-01-29T13:43:21;2.70;56.20
14877;DHT22;22152;48.158;17.118;2023-01-29T13:46:17;2.70;56.20
14877;DHT22;22152;48.158;17.118;2023-01-29T13:48:59;2.60;55.90
14877;DHT22;22152;48.158;17.118;2023-01-29T13:51:46;2.60;56.20
14877;DHT22;22152;48.158;17.118;2023-01-29T13:54:26;2.80;56.60
14877;DHT22;22152;48.158;17.118;2023-01-29T14:06:03;2.90;55.40
14877;DHT22;22152;48.158;17.118;2023-01-29T14:08:50;2.70;55.10
14877;DHT22;22152;48.158;17.118;2023-01-29T14:11:34;2.60;55.40
14877;DHT22;22152;48.158;17.118;2023-01-29T14:21:03;2.60;56.00
14877;DHT22;22152;48.158;17.118;2023-01-29T14:23:44;2.60;56.00
14877;DHT22;22152;48.158;17.118;2023-01-29T14:29:18;2.50;56.10
14877;DHT22;22152;48.158;17.118;2023-01-29T14:32:22;2.40;56.00
14877;DHT22;22152;48.158;17.118;2023-01-29T14:35:02;2.30;56.00
14877;DHT22;22152;48.158;17.118;2023-01-29T14:38:03;2.20;56.30
14877;DHT22;22152;48.158;17.118;2023-01-29T14:40:44;2.10;56.50
14877;DHT22;22152;48.158;17.118;2023-01-29T14:43:38;2.00;56.40
14877;DHT22;22152;48.158;17.118;2023-01-29T14:52:44;1.90;56.90
14877;DHT22;22152;48.158;17.118;2023-01-29T14:56:04;1.80;57.40
14877;DHT22;22152;48.158;17.118;2023-01-29T14:58:51;1.70;57.00
14877;DHT22;22152;48.158;17.118;2023-01-29T15:01:54;1.60;57.70
14877;DHT22;22152;48.158;17.118;2023-01-29T15:04:47;1.50;57.20
14877;DHT22;22152;48.158;17.118;2023-01-29T15:07:52;1.40;57.20
14877;DHT22;22152;48.158;17.118;2023-01-29T15:10:41;1.30;58.00
14877;DHT22;22152;48.158;17.118;2023-01-29T15:16:55;1.30;57.50
14877;DHT22;22152;48.158;17.118;2023-01-29T15:19:53;1.30;57.60
14877;DHT22;22152;48.158;17.118;2023-01-29T15:22:28;1.20;57.60
14877;DHT22;22152;48.158;17.118;2023-01-29T15:25:21;1.20;57.60
14877;DHT22;22152;48.158;17.118;2023-01-29T15:27:55;1.20;57.60
14877;DHT22;22152;48.158;17.118;2023-01-29T15:30:54;1.10;57.70
14877;DHT22;22152;48.158;17.118;2023-01-29T15:33:28;1.10;58.00
14877;DHT22;22152;48.158;17.118;2023-01-29T15:36:26;1.00;58.00
14877;DHT22;22152;48.158;17.118;2023-01-29T15:42:14;1.00;58.30
14877;DHT22;22152;48.158;17.118;2023-01-29T15:44:54;1.00;58.40
14877;DHT22;22152;48.158;17.118;2023-01-29T15:47:48;1.00;58.40
14877;DHT22;22152;48.158;17.118;2023-01-29T15:50:29;1.00;58.50
14877;DHT22;22152;48.158;17.118;2023-01-29T15:53:19;1.00;58.50
14877;DHT22;22152;48.158;17.118;2023-01-29T15:56:00;0.90;58.60
14877;DHT22;22152;48.158;17.118;2023-01-29T15:58:51;0.90;58.60
14877;DHT22;22152;48.158;17.118;2023-01-29T16:01:31;0.80;58.60
14877;DHT22;22152;48.158;17.118;2023-01-29T16:04:26;0.80;58.60
14877;DHT22;22152;48.158;17.118;2023-01-29T16:07:06;0.80;58.70
14877;DHT22;22152;48.158;17.118;2023-01-29T16:09:53;0.70;58.70
14877;DHT22;22152;48.158;17.118;2023-01-29T16:12:33;0.80;59.50
14877;DHT22;22152;48.158;17.118;2023-01-29T16:15:28;0.80;59.00
14877;DHT22;22152;48.158;17.118;2023-01-29T16:18:32;0.80;59.10
14877;DHT22;22152;48.158;17.118;2023-01-29T16:24:11;0.80;59.40
14877;DHT22;22152;48.158;17.118;2023-01-29T16:26:49;0.80;59.30
14877;DHT22;22152;48.158;17.118;2023-01-29T16:29:43;0.80;59.40
14877;DHT22;22152;48.158;17.118;2023-01-29T16:32:16;0.80;59.40
14877;DHT22;22152;48.158;17.118;2023-01-29T16:35:14;0.80;59.50
14877;DHT22;22152;48.158;17.118;2023-01-29T16:37:49;0.80;60.40
14877;DHT22;22152;48.158;17.118;2023-01-29T16:41:07;0.80;59.80
14877;DHT22;22152;48.158;17.118;2023-01-29T16:43:57;0.80;59.90
14877;DHT22;22152;48.158;17.118;2023-01-29T16:46:53;0.80;60.00
14877;DHT22;22152;48.158;17.118;2023-01-29T16:52:26;0.80;60.00
14877;DHT22;22152;48.158;17.118;2023-01-29T16:58:21;0.80;60.10
14877;DHT22;22152;48.158;17.118;2023-01-29T17:01:00;0.80;60.30
14877;DHT22;22152;48.158;17.118;2023-01-29T17:04:06;0.80;60.50
14877;DHT22;22152;48.158;17.118;2023-01-29T17:06:54;0.70;60.50
14877;DHT22;22152;48.158;17.118;2023-01-29T17:09:52;0.70;60.70
14877;DHT22;22152;48.158;17.118;2023-01-29T17:12:26;0.70;60.80
14877;DHT22;22152;48.158;17.118;2023-01-29T17:15:50;0.70;60.70
14877;DHT22;22152;48.158;17.118;2023-01-29T17:18:42;0.60;60.80
14877;DHT22;22152;48.158;17.118;2023-01-29T17:21:14;0.60;60.90
14877;DHT22;22152;48.158;17.118;2023-01-29T17:24:07;0.50;60.80
14877;DHT22;22152;48.158;17.118;2023-01-29T17:58:24;0.20;62.00
14877;DHT22;22152;48.158;17.118;2023-01-29T18:01:18;0.20;62.10
14877;DHT22;22152;48.158;17.118;2023-01-29T18:03:50;0.30;62.20
14877;DHT22;22152;48.158;17.118;2023-01-29T18:06:46;0.40;62.20
14877;DHT22;22152;48.158;17.118;2023-01-29T18:09:20;0.40;62.00
14877;DHT22;22152;48.158;17.118;2023-01-29T18:12:13;0.50;62.10
14877;DHT22;22152;48.158;17.118;2023-01-29T18:14:45;0.50;62.20
14877;DHT22;22152;48.158;17.118;2023-01-29T18:17:39;0.50;62.10
14877;DHT22;22152;48.158;17.118;2023-01-29T18:20:33;0.50;62.20
14877;DHT22;22152;48.158;17.118;2023-01-29T18:23:07;0.50;62.10
14877;DHT22;22152;48.158;17.118;2023-01-29T18:26:00;0.40;62.00
14877;DHT22;22152;48.158;17.118;2023-01-29T18:28:32;0.30;62.10
14877;DHT22;22152;48.158;17.118;2023-01-29T18:31:27;0.30;62.20
14877;DHT22;22152;48.158;17.118;2023-01-29T18:33:59;0.20;62.50
14877;DHT22;22152;48.158;17.118;2023-01-29T18:36:52;0.20;62.90
14877;DHT22;22152;48.158;17.118;2023-01-29T18:39:24;0.20;62.70
14877;DHT22;22152;48.158;17.118;2023-01-29T18:42:17;0.20;62.80
14877;DHT22;22152;48.158;17.118;2023-01-29T18:44:49;0.20;62.80
14877;DHT22;22152;48.158;17.118;2023-01-29T18:47:42;0.10;62.90
14877;DHT22;22152;48.158;17.118;2023-01-29T18:50:15;0.10;63.00
14877;DHT22;22152;48.158;17.118;2023-01-29T18:53:09;0.10;62.90
14877;DHT22;22152;48.158;17.118;2023-01-29T18:55:41;0.10;62.90
14877;DHT22;22152;48.158;17.118;2023-01-29T18:58:34;0.00;62.90
14877;DHT22;22152;48.158;17.118;2023-01-29T19:01:09;-0.10;63.10
14877;DHT22;22152;48.158;17.118;2023-01-29T19:04:02;-0.10;63.20
14877;DHT22;22152;48.158;17.118;2023-01-29T19:06:34;-0.10;63.50
14877;DHT22;22152;48.158;17.118;2023-01-29T19:09:27;-0.10;63.50
14877;DHT22;22152;48.158;17.118;2023-01-29T19:11:59;-0.20;63.50
14877;DHT22;22152;48.158;17.118;2023-01-29T19:14:52;-0.20;63.60
14877;DHT22;22152;48.158;17.118;2023-01-29T19:17:25;-0.30;64.10
14877;DHT22;22152;48.158;17.118;2023-01-29T19:20:19;-0.30;64.30
14877;DHT22;22152;48.158;17.118;2023-01-29T19:22:51;-0.30;64.20
14877;DHT22;22152;48.158;17.118;2023-01-29T19:25:44;-0.40;64.40
14877;DHT22;22152;48.158;17.118;2023-01-29T19:28:16;-0.40;64.60
14877;DHT22;22152;48.158;17.118;2023-01-29T19:31:09;-0.40;64.60
14877;DHT22;22152;48.158;17.118;2023-01-29T19:33:41;-0.40;64.90
14877;DHT22;22152;48.158;17.118;2023-01-29T19:36:35;-0.40;65.00
14877;DHT22;22152;48.158;17.118;2023-01-29T19:39:07;-0.40;64.90
14877;DHT22;22152;48.158;17.118;2023-01-29T19:42:01;-0.50;64.90
14877;DHT22;22152;48.158;17.118;2023-01-29T19:44:33;-0.50;64.90
14877;DHT22;22152;48.158;17.118;2023-01-29T19:47:26;-0.50;64.90
14877;DHT22;22152;48.158;17.118;2023-01-29T19:49:58;-0.50;65.10
14877;DHT22;22152;48.158;17.118;2023-01-29T19:52:51;-0.50;65.00
14877;DHT22;22152;48.158;17.118;2023-01-29T19:55:24;-0.50;65.00
14877;DHT22;22152;48.158;17.118;2023-01-29T19:58:17;-0.50;65.10
14877;DHT22;22152;48.158;17.118;2023-01-29T20:00:58;-0.50;65.10
14877;DHT22;22152;48.158;17.118;2023-01-29T20:03:47;-0.60;65.10
14877;DHT22;22152;48.158;17.118;2023-01-29T20:06:27;-0.60;65.40
14877;DHT22;22152;48.158;17.118;2023-01-29T20:09:14;-0.60;65.30
14877;DHT22;22152;48.158;17.118;2023-01-29T20:11:53;-0.60;65.30
14877;DHT22;22152;48.158;17.118;2023-01-29T20:14:40;-0.60;65.40
14877;DHT22;22152;48.158;17.118;2023-01-29T20:17:33;-0.60;65.70
14877;DHT22;22152;48.158;17.118;2023-01-29T20:20:26;-0.60;65.40